sensor_id;sensor_type;location;lat;lon;timestamp;P1;durP1;ratioP1;P2;durP2;ratioP2
7961;SDS011;4026;43.652;24.906;2022-09-03T00:01:36;0.40;;;0.40;;
7961;SDS011;4026;43.652;24.906;2022-09-03T00:04:09;0.67;;;0.67;;
7961;SDS011;4026;43.652;24.906;2022-09-03T00:06:44;0.30;;;0.30;;
7961;SDS011;4026;43.652;24.906;2022-09-03T00:09:18;0.70;;;0.60;;
7961;SDS011;4026;43.652;24.906;2022-09-03T00:11:52;0.77;;;0.77;;
7961;SDS011;4026;43.652;24.906;2022-09-03T00:14:26;0.57;;;0.57;;
7961;SDS011;4026;43.652;24.906;2022-09-03T00:17:00;0.50;;;0.50;;
7961;SDS011;4026;43.652;24.906;2022-09-03T00:19:33;0.80;;;0.80;;
7961;SDS011;4026;43.652;24.906;2022-09-03T00:22:06;0.57;;;0.50;;
7961;SDS011;4026;43.652;24.906;2022-09-03T00:24:37;0.80;;;0.70;;
7961;SDS011;4026;43.652;24.906;2022-09-03T00:27:08;0.43;;;0.43;;
7961;SDS011;4026;43.652;24.906;2022-09-03T00:29:38;1.00;;;0.90;;
7961;SDS011;4026;43.652;24.906;2022-09-03T00:32:12;0.27;;;0.27;;
7961;SDS011;4026;43.652;24.906;2022-09-03T00:34:45;0.40;;;0.40;;
7961;SDS011;4026;43.652;24.906;2022-09-03T00:37:16;0.70;;;0.57;;
7961;SDS011;4026;43.652;24.906;2022-09-03T00:39:43;1.10;;;1.07;;
7961;SDS011;4026;43.652;24.906;2022-09-03T00:42:14;0.57;;;0.57;;
7961;SDS011;4026;43.652;24.906;2022-09-03T00:45:13;0.80;;;0.80;;
7961;SDS011;4026;43.652;24.906;2022-09-03T00:47:52;0.60;;;0.60;;
7961;SDS011;4026;43.652;24.906;2022-09-03T00:50:30;0.93;;;0.73;;
7961;SDS011;4026;43.652;24.906;2022-09-03T00:53:07;0.67;;;0.63;;
7961;SDS011;4026;43.652;24.906;2022-09-03T00:55:41;0.63;;;0.60;;
7961;SDS011;4026;43.652;24.906;2022-09-03T00:58:20;0.93;;;0.90;;
7961;SDS011;4026;43.652;24.906;2022-09-03T01:00:59;0.80;;;0.60;;
7961;SDS011;4026;43.652;24.906;2022-09-03T01:03:36;0.47;;;0.47;;
7961;SDS011;4026;43.652;24.906;2022-09-03T01:06:15;0.53;;;0.50;;
7961;SDS011;4026;43.652;24.906;2022-09-03T01:08:49;0.87;;;0.87;;
7961;SDS011;4026;43.652;24.906;2022-09-03T01:11:29;0.90;;;0.70;;
7961;SDS011;4026;43.652;24.906;2022-09-03T01:14:06;0.57;;;0.57;;
7961;SDS011;4026;43.652;24.906;2022-09-03T01:16:43;0.77;;;0.67;;
7961;SDS011;4026;43.652;24.906;2022-09-03T01:25:20;0.47;;;0.43;;
7961;SDS011;4026;43.652;24.906;2022-09-03T01:28:05;0.90;;;0.53;;
7961;SDS011;4026;43.652;24.906;2022-09-03T01:30:45;1.03;;;0.90;;
7961;SDS011;4026;43.652;24.906;2022-09-03T01:33:21;0.70;;;0.70;;
7961;SDS011;4026;43.652;24.906;2022-09-03T01:35:56;0.53;;;0.53;;
7961;SDS011;4026;43.652;24.906;2022-09-03T01:38:36;0.70;;;0.63;;
7961;SDS011;4026;43.652;24.906;2022-09-03T01:41:11;1.17;;;0.60;;
7961;SDS011;4026;43.652;24.906;2022-09-03T01:44:11;0.93;;;0.87;;
7961;SDS011;4026;43.652;24.906;2022-09-03T01:46:45;0.50;;;0.40;;
7961;SDS011;4026;43.652;24.906;2022-09-03T01:49:23;0.40;;;0.40;;
7961;SDS011;4026;43.652;24.906;2022-09-03T01:51:58;0.77;;;0.77;;
7961;SDS011;4026;43.652;24.906;2022-09-03T01:54:34;0.90;;;0.60;;
7961;SDS011;4026;43.652;24.906;2022-09-03T01:57:22;0.50;;;0.50;;
7961;SDS011;4026;43.652;24.906;2022-09-03T02:00:04;0.77;;;0.70;;
7961;SDS011;4026;43.652;24.906;2022-09-03T02:02:34;0.37;;;0.33;;
7961;SDS011;4026;43.652;24.906;2022-09-03T02:05:02;0.93;;;0.77;;
7961;SDS011;4026;43.652;24.906;2022-09-03T02:07:32;0.97;;;0.90;;
7961;SDS011;4026;43.652;24.906;2022-09-03T02:10:02;0.77;;;0.77;;
7961;SDS011;4026;43.652;24.906;2022-09-03T02:12:31;0.70;;;0.70;;
7961;SDS011;4026;43.652;24.906;2022-09-03T02:15:04;1.03;;;0.73;;
7961;SDS011;4026;43.652;24.906;2022-09-03T02:17:36;0.70;;;0.70;;
7961;SDS011;4026;43.652;24.906;2022-09-03T02:20:04;0.70;;;0.70;;
7961;SDS011;4026;43.652;24.906;2022-09-03T02:22:34;0.70;;;0.70;;
7961;SDS011;4026;43.652;24.906;2022-09-03T02:25:01;0.73;;;0.73;;
7961;SDS011;4026;43.652;24.906;2022-09-03T02:27:28;0.50;;;0.50;;
7961;SDS011;4026;43.652;24.906;2022-09-03T02:29:55;1.40;;;0.67;;
7961;SDS011;4026;43.652;24.906;2022-09-03T02:32:23;0.67;;;0.63;;
7961;SDS011;4026;43.652;24.906;2022-09-03T02:34:50;1.13;;;0.80;;
7961;SDS011;4026;43.652;24.906;2022-09-03T02:37:18;0.73;;;0.70;;
7961;SDS011;4026;43.652;24.906;2022-09-03T02:39:45;0.67;;;0.50;;
7961;SDS011;4026;43.652;24.906;2022-09-03T02:42:12;0.60;;;0.60;;
7961;SDS011;4026;43.652;24.906;2022-09-03T02:44:40;0.73;;;0.57;;
7961;SDS011;4026;43.652;24.906;2022-09-03T02:47:11;0.60;;;0.60;;
7961;SDS011;4026;43.652;24.906;2022-09-03T02:49:40;0.60;;;0.37;;
7961;SDS011;4026;43.652;24.906;2022-09-03T02:52:07;0.60;;;0.60;;
7961;SDS011;4026;43.652;24.906;2022-09-03T02:54:36;0.50;;;0.50;;
7961;SDS011;4026;43.652;24.906;2022-09-03T02:57:05;0.60;;;0.60;;
7961;SDS011;4026;43.652;24.906;2022-09-03T02:59:32;0.90;;;0.50;;
7961;SDS011;4026;43.652;24.906;2022-09-03T03:01:59;0.50;;;0.50;;
7961;SDS011;4026;43.652;24.906;2022-09-03T03:04:26;0.50;;;0.50;;
7961;SDS011;4026;43.652;24.906;2022-09-03T03:06:54;1.53;;;1.00;;
7961;SDS011;4026;43.652;24.906;2022-09-03T03:09:21;0.50;;;0.50;;
7961;SDS011;4026;43.652;24.906;2022-09-03T03:11:48;0.50;;;0.47;;
7961;SDS011;4026;43.652;24.906;2022-09-03T03:14:16;0.73;;;0.60;;
7961;SDS011;4026;43.652;24.906;2022-09-03T03:16:43;0.70;;;0.67;;
7961;SDS011;4026;43.652;24.906;2022-09-03T03:19:10;0.60;;;0.60;;
7961;SDS011;4026;43.652;24.906;2022-09-03T03:21:37;0.40;;;0.40;;
7961;SDS011;4026;43.652;24.906;2022-09-03T03:24:05;0.60;;;0.60;;
7961;SDS011;4026;43.652;24.906;2022-09-03T03:26:33;1.00;;;0.73;;
7961;SDS011;4026;43.652;24.906;2022-09-03T03:29:00;1.73;;;0.40;;
7961;SDS011;4026;43.652;24.906;2022-09-03T03:31:29;0.70;;;0.60;;
7961;SDS011;4026;43.652;24.906;2022-09-03T03:33:56;0.40;;;0.40;;
7961;SDS011;4026;43.652;24.906;2022-09-03T03:36:25;1.23;;;0.87;;
7961;SDS011;4026;43.652;24.906;2022-09-03T03:38:54;0.37;;;0.33;;
7961;SDS011;4026;43.652;24.906;2022-09-03T03:41:25;0.70;;;0.47;;
7961;SDS011;4026;43.652;24.906;2022-09-03T03:43:53;0.50;;;0.40;;
7961;SDS011;4026;43.652;24.906;2022-09-03T03:46:21;0.80;;;0.60;;
7961;SDS011;4026;43.652;24.906;2022-09-03T03:48:49;0.43;;;0.43;;
7961;SDS011;4026;43.652;24.906;2022-09-03T03:51:17;0.40;;;0.40;;
7961;SDS011;4026;43.652;24.906;2022-09-03T03:53:44;0.77;;;0.77;;
7961;SDS011;4026;43.652;24.906;2022-09-03T03:56:12;0.30;;;0.30;;
7961;SDS011;4026;43.652;24.906;2022-09-03T03:58:42;0.57;;;0.57;;
7961;SDS011;4026;43.652;24.906;2022-09-03T04:01:10;0.73;;;0.73;;
7961;SDS011;4026;43.652;24.906;2022-09-03T04:03:38;0.50;;;0.50;;
7961;SDS011;4026;43.652;24.906;2022-09-03T04:06:06;0.63;;;0.60;;
7961;SDS011;4026;43.652;24.906;2022-09-03T04:08:34;0.87;;;0.50;;
7961;SDS011;4026;43.652;24.906;2022-09-03T04:11:02;0.33;;;0.33;;
7961;SDS011;4026;43.652;24.906;2022-09-03T04:13:29;0.20;;;0.20;;
7961;SDS011;4026;43.652;24.906;2022-09-03T04:16:02;0.87;;;0.60;;
7961;SDS011;4026;43.652;24.906;2022-09-03T04:18:30;0.50;;;0.43;;
7961;SDS011;4026;43.652;24.906;2022-09-03T04:20:58;0.20;;;0.20;;
7961;SDS011;4026;43.652;24.906;2022-09-03T04:23:28;0.40;;;0.40;;
7961;SDS011;4026;43.652;24.906;2022-09-03T04:25:56;0.40;;;0.40;;
7961;SDS011;4026;43.652;24.906;2022-09-03T04:28:23;0.53;;;0.40;;
7961;SDS011;4026;43.652;24.906;2022-09-03T04:30:50;0.50;;;0.50;;
7961;SDS011;4026;43.652;24.906;2022-09-03T04:33:18;0.43;;;0.43;;
7961;SDS011;4026;43.652;24.906;2022-09-03T04:35:45;0.80;;;0.80;;
7961;SDS011;4026;43.652;24.906;2022-09-03T04:38:12;0.53;;;0.50;;
7961;SDS011;4026;43.652;24.906;2022-09-03T04:40:39;0.33;;;0.33;;
7961;SDS011;4026;43.652;24.906;2022-09-03T04:43:06;0.50;;;0.33;;
7961;SDS011;4026;43.652;24.906;2022-09-03T04:45:32;1.03;;;0.60;;
7961;SDS011;4026;43.652;24.906;2022-09-03T04:47:59;0.40;;;0.40;;
7961;SDS011;4026;43.652;24.906;2022-09-03T04:50:29;0.60;;;0.60;;
7961;SDS011;4026;43.652;24.906;2022-09-03T04:52:59;0.40;;;0.40;;
7961;SDS011;4026;43.652;24.906;2022-09-03T04:55:27;0.70;;;0.70;;
7961;SDS011;4026;43.652;24.906;2022-09-03T04:57:54;1.17;;;1.07;;
7961;SDS011;4026;43.652;24.906;2022-09-03T05:00:21;1.77;;;1.20;;
7961;SDS011;4026;43.652;24.906;2022-09-03T05:02:48;0.37;;;0.37;;
7961;SDS011;4026;43.652;24.906;2022-09-03T05:05:16;1.77;;;1.07;;
7961;SDS011;4026;43.652;24.906;2022-09-03T05:07:44;0.50;;;0.50;;
7961;SDS011;4026;43.652;24.906;2022-09-03T05:10:12;0.60;;;0.40;;
7961;SDS011;4026;43.652;24.906;2022-09-03T05:12:44;0.33;;;0.33;;
7961;SDS011;4026;43.652;24.906;2022-09-03T05:15:12;0.40;;;0.40;;
7961;SDS011;4026;43.652;24.906;2022-09-03T05:17:38;0.27;;;0.10;;
7961;SDS011;4026;43.652;24.906;2022-09-03T05:20:06;0.40;;;0.40;;
7961;SDS011;4026;43.652;24.906;2022-09-03T05:22:34;0.87;;;0.60;;
7961;SDS011;4026;43.652;24.906;2022-09-03T05:25:02;0.40;;;0.40;;
7961;SDS011;4026;43.652;24.906;2022-09-03T05:27:30;0.43;;;0.43;;
7961;SDS011;4026;43.652;24.906;2022-09-03T05:29:57;0.40;;;0.40;;
7961;SDS011;4026;43.652;24.906;2022-09-03T05:32:24;0.27;;;0.27;;
7961;SDS011;4026;43.652;24.906;2022-09-03T05:34:52;0.30;;;0.30;;
7961;SDS011;4026;43.652;24.906;2022-09-03T05:37:20;0.50;;;0.50;;
7961;SDS011;4026;43.652;24.906;2022-09-03T05:39:47;0.50;;;0.50;;
7961;SDS011;4026;43.652;24.906;2022-09-03T05:42:15;0.40;;;0.40;;
7961;SDS011;4026;43.652;24.906;2022-09-03T05:44:42;1.17;;;0.40;;
7961;SDS011;4026;43.652;24.906;2022-09-03T05:47:09;0.63;;;0.40;;
7961;SDS011;4026;43.652;24.906;2022-09-03T05:49:36;0.23;;;0.23;;
7961;SDS011;4026;43.652;24.906;2022-09-03T05:52:02;0.33;;;0.30;;
7961;SDS011;4026;43.652;24.906;2022-09-03T05:54:29;0.50;;;0.50;;
7961;SDS011;4026;43.652;24.906;2022-09-03T05:56:56;0.83;;;0.70;;
7961;SDS011;4026;43.652;24.906;2022-09-03T05:59:24;0.40;;;0.40;;
7961;SDS011;4026;43.652;24.906;2022-09-03T06:01:51;0.50;;;0.50;;
7961;SDS011;4026;43.652;24.906;2022-09-03T06:04:18;0.73;;;0.47;;
7961;SDS011;4026;43.652;24.906;2022-09-03T06:06:46;0.47;;;0.47;;
7961;SDS011;4026;43.652;24.906;2022-09-03T06:09:14;0.43;;;0.33;;
7961;SDS011;4026;43.652;24.906;2022-09-03T06:11:43;0.73;;;0.70;;
7961;SDS011;4026;43.652;24.906;2022-09-03T06:14:11;0.30;;;0.30;;
7961;SDS011;4026;43.652;24.906;2022-09-03T06:16:41;0.37;;;0.37;;
7961;SDS011;4026;43.652;24.906;2022-09-03T06:19:09;0.40;;;0.37;;
7961;SDS011;4026;43.652;24.906;2022-09-03T06:21:38;0.40;;;0.37;;
7961;SDS011;4026;43.652;24.906;2022-09-03T06:24:07;0.30;;;0.30;;
7961;SDS011;4026;43.652;24.906;2022-09-03T06:26:35;0.53;;;0.53;;
7961;SDS011;4026;43.652;24.906;2022-09-03T06:29:03;0.67;;;0.67;;
7961;SDS011;4026;43.652;24.906;2022-09-03T06:31:30;0.43;;;0.40;;
7961;SDS011;4026;43.652;24.906;2022-09-03T06:33:58;0.73;;;0.70;;
7961;SDS011;4026;43.652;24.906;2022-09-03T06:36:26;0.47;;;0.47;;
7961;SDS011;4026;43.652;24.906;2022-09-03T06:38:53;0.43;;;0.43;;
7961;SDS011;4026;43.652;24.906;2022-09-03T06:41:22;0.37;;;0.37;;
7961;SDS011;4026;43.652;24.906;2022-09-03T06:43:51;1.27;;;0.50;;
7961;SDS011;4026;43.652;24.906;2022-09-03T06:46:20;0.37;;;0.37;;
7961;SDS011;4026;43.652;24.906;2022-09-03T06:48:48;0.30;;;0.30;;
7961;SDS011;4026;43.652;24.906;2022-09-03T06:51:18;0.47;;;0.47;;
7961;SDS011;4026;43.652;24.906;2022-09-03T06:53:46;0.33;;;0.30;;
7961;SDS011;4026;43.652;24.906;2022-09-03T06:56:14;1.17;;;0.50;;
7961;SDS011;4026;43.652;24.906;2022-09-03T06:58:43;0.40;;;0.40;;
7961;SDS011;4026;43.652;24.906;2022-09-03T07:01:13;0.73;;;0.50;;
7961;SDS011;4026;43.652;24.906;2022-09-03T07:03:42;0.60;;;0.50;;
7961;SDS011;4026;43.652;24.906;2022-09-03T07:06:10;0.47;;;0.47;;
7961;SDS011;4026;43.652;24.906;2022-09-03T07:08:40;0.10;;;0.10;;
7961;SDS011;4026;43.652;24.906;2022-09-03T07:11:08;0.40;;;0.40;;
7961;SDS011;4026;43.652;24.906;2022-09-03T07:13:36;0.37;;;0.37;;
7961;SDS011;4026;43.652;24.906;2022-09-03T07:16:05;0.60;;;0.50;;
7961;SDS011;4026;43.652;24.906;2022-09-03T07:18:33;0.53;;;0.53;;
7961;SDS011;4026;43.652;24.906;2022-09-03T07:21:00;0.33;;;0.33;;
7961;SDS011;4026;43.652;24.906;2022-09-03T07:23:29;0.53;;;0.40;;
7961;SDS011;4026;43.652;24.906;2022-09-03T07:25:59;0.67;;;0.53;;
7961;SDS011;4026;43.652;24.906;2022-09-03T07:28:27;0.53;;;0.53;;
7961;SDS011;4026;43.652;24.906;2022-09-03T07:31:00;0.43;;;0.43;;
7961;SDS011;4026;43.652;24.906;2022-09-03T07:33:29;0.53;;;0.50;;
7961;SDS011;4026;43.652;24.906;2022-09-03T07:36:00;0.40;;;0.40;;
7961;SDS011;4026;43.652;24.906;2022-09-03T07:38:28;0.27;;;0.27;;
7961;SDS011;4026;43.652;24.906;2022-09-03T07:40:59;0.50;;;0.50;;
7961;SDS011;4026;43.652;24.906;2022-09-03T07:43:27;0.30;;;0.30;;
7961;SDS011;4026;43.652;24.906;2022-09-03T07:45:56;0.67;;;0.67;;
7961;SDS011;4026;43.652;24.906;2022-09-03T07:48:22;0.73;;;0.73;;
7961;SDS011;4026;43.652;24.906;2022-09-03T07:50:49;0.50;;;0.50;;
7961;SDS011;4026;43.652;24.906;2022-09-03T07:53:17;1.33;;;1.00;;
7961;SDS011;4026;43.652;24.906;2022-09-03T07:55:45;0.73;;;0.50;;
7961;SDS011;4026;43.652;24.906;2022-09-03T07:58:14;0.53;;;0.50;;
7961;SDS011;4026;43.652;24.906;2022-09-03T08:00:42;0.60;;;0.60;;
7961;SDS011;4026;43.652;24.906;2022-09-03T08:03:09;0.93;;;0.80;;
7961;SDS011;4026;43.652;24.906;2022-09-03T08:05:36;0.43;;;0.43;;
7961;SDS011;4026;43.652;24.906;2022-09-03T08:08:03;0.90;;;0.90;;
7961;SDS011;4026;43.652;24.906;2022-09-03T08:10:33;0.87;;;0.70;;
7961;SDS011;4026;43.652;24.906;2022-09-03T08:13:00;0.20;;;0.20;;
7961;SDS011;4026;43.652;24.906;2022-09-03T08:15:31;1.73;;;0.60;;
7961;SDS011;4026;43.652;24.906;2022-09-03T08:18:02;0.63;;;0.63;;
7961;SDS011;4026;43.652;24.906;2022-09-03T08:20:29;0.73;;;0.60;;
7961;SDS011;4026;43.652;24.906;2022-09-03T08:22:59;0.93;;;0.67;;
7961;SDS011;4026;43.652;24.906;2022-09-03T08:25:27;0.57;;;0.57;;
7961;SDS011;4026;43.652;24.906;2022-09-03T08:27:56;0.87;;;0.60;;
7961;SDS011;4026;43.652;24.906;2022-09-03T08:30:24;0.73;;;0.67;;
7961;SDS011;4026;43.652;24.906;2022-09-03T08:32:53;1.33;;;1.03;;
7961;SDS011;4026;43.652;24.906;2022-09-03T08:35:20;0.60;;;0.60;;
7961;SDS011;4026;43.652;24.906;2022-09-03T08:37:47;0.73;;;0.70;;
7961;SDS011;4026;43.652;24.906;2022-09-03T08:40:18;0.60;;;0.57;;
7961;SDS011;4026;43.652;24.906;2022-09-03T08:42:48;0.70;;;0.70;;
7961;SDS011;4026;43.652;24.906;2022-09-03T08:45:30;1.53;;;0.80;;
7961;SDS011;4026;43.652;24.906;2022-09-03T08:48:02;0.37;;;0.37;;
7961;SDS011;4026;43.652;24.906;2022-09-03T08:50:34;0.60;;;0.60;;
7961;SDS011;4026;43.652;24.906;2022-09-03T08:53:07;1.10;;;0.80;;
7961;SDS011;4026;43.652;24.906;2022-09-03T08:55:40;0.70;;;0.67;;
7961;SDS011;4026;43.652;24.906;2022-09-03T08:58:11;0.73;;;0.60;;
7961;SDS011;4026;43.652;24.906;2022-09-03T09:00:48;0.77;;;0.60;;
7961;SDS011;4026;43.652;24.906;2022-09-03T09:06:20;0.70;;;0.70;;
7961;SDS011;4026;43.652;24.906;2022-09-03T09:08:55;0.60;;;0.60;;
7961;SDS011;4026;43.652;24.906;2022-09-03T09:11:31;0.60;;;0.60;;
7961;SDS011;4026;43.652;24.906;2022-09-03T09:14:09;0.60;;;0.60;;
7961;SDS011;4026;43.652;24.906;2022-09-03T09:16:44;1.13;;;0.90;;
7961;SDS011;4026;43.652;24.906;2022-09-03T09:19:21;0.70;;;0.70;;
7961;SDS011;4026;43.652;24.906;2022-09-03T09:22:03;0.77;;;0.77;;
7961;SDS011;4026;43.652;24.906;2022-09-03T09:24:36;0.80;;;0.80;;
7961;SDS011;4026;43.652;24.906;2022-09-03T09:27:06;0.80;;;0.80;;
7961;SDS011;4026;43.652;24.906;2022-09-03T09:29:34;1.33;;;0.90;;
7961;SDS011;4026;43.652;24.906;2022-09-03T09:32:02;1.20;;;1.10;;
7961;SDS011;4026;43.652;24.906;2022-09-03T09:34:34;0.83;;;0.83;;
7961;SDS011;4026;43.652;24.906;2022-09-03T09:37:03;0.70;;;0.70;;
7961;SDS011;4026;43.652;24.906;2022-09-03T09:39:32;0.83;;;0.57;;
7961;SDS011;4026;43.652;24.906;2022-09-03T09:42:00;0.73;;;0.70;;
7961;SDS011;4026;43.652;24.906;2022-09-03T09:44:32;1.17;;;0.83;;
7961;SDS011;4026;43.652;24.906;2022-09-03T09:47:03;0.67;;;0.63;;
7961;SDS011;4026;43.652;24.906;2022-09-03T09:49:33;1.03;;;0.93;;
7961;SDS011;4026;43.652;24.906;2022-09-03T09:52:06;1.30;;;1.13;;
7961;SDS011;4026;43.652;24.906;2022-09-03T09:54:36;1.20;;;0.77;;
7961;SDS011;4026;43.652;24.906;2022-09-03T09:57:05;1.17;;;1.07;;
7961;SDS011;4026;43.652;24.906;2022-09-03T09:59:33;1.23;;;1.00;;
7961;SDS011;4026;43.652;24.906;2022-09-03T10:02:09;1.03;;;0.83;;
7961;SDS011;4026;43.652;24.906;2022-09-03T10:04:40;1.10;;;1.00;;
7961;SDS011;4026;43.652;24.906;2022-09-03T10:07:25;1.30;;;1.20;;
7961;SDS011;4026;43.652;24.906;2022-09-03T10:09:58;0.73;;;0.73;;
7961;SDS011;4026;43.652;24.906;2022-09-03T10:12:29;1.10;;;0.83;;
7961;SDS011;4026;43.652;24.906;2022-09-03T10:15:02;2.70;;;1.85;;
7961;SDS011;4026;43.652;24.906;2022-09-03T10:17:41;17.37;;;7.70;;
7961;SDS011;4026;43.652;24.906;2022-09-03T10:20:17;8.47;;;4.53;;
7961;SDS011;4026;43.652;24.906;2022-09-03T10:22:55;18.70;;;9.60;;
7961;SDS011;4026;43.652;24.906;2022-09-03T10:25:26;8.90;;;3.97;;
7961;SDS011;4026;43.652;24.906;2022-09-03T10:28:03;11.27;;;5.07;;
7961;SDS011;4026;43.652;24.906;2022-09-03T10:30:32;4.00;;;2.70;;
7961;SDS011;4026;43.652;24.906;2022-09-03T10:33:13;7.70;;;4.10;;
7961;SDS011;4026;43.652;24.906;2022-09-03T10:35:48;4.23;;;2.60;;
7961;SDS011;4026;43.652;24.906;2022-09-03T10:38:20;19.70;;;8.10;;
7961;SDS011;4026;43.652;24.906;2022-09-03T10:40:56;4.50;;;2.93;;
7961;SDS011;4026;43.652;24.906;2022-09-03T10:43:41;1.67;;;1.47;;
7961;SDS011;4026;43.652;24.906;2022-09-03T10:46:18;2.43;;;1.30;;
7961;SDS011;4026;43.652;24.906;2022-09-03T10:51:42;1.33;;;1.17;;
7961;SDS011;4026;43.652;24.906;2022-09-03T10:54:27;2.73;;;1.23;;
7961;SDS011;4026;43.652;24.906;2022-09-03T10:57:04;0.83;;;0.60;;
7961;SDS011;4026;43.652;24.906;2022-09-03T10:59:43;1.47;;;1.17;;
7961;SDS011;4026;43.652;24.906;2022-09-03T11:02:28;1.50;;;0.87;;
7961;SDS011;4026;43.652;24.906;2022-09-03T11:05:10;1.53;;;1.07;;
7961;SDS011;4026;43.652;24.906;2022-09-03T11:07:45;1.13;;;0.97;;
7961;SDS011;4026;43.652;24.906;2022-09-03T11:10:18;1.37;;;1.07;;
7961;SDS011;4026;43.652;24.906;2022-09-03T11:12:49;1.33;;;1.07;;
7961;SDS011;4026;43.652;24.906;2022-09-03T11:15:27;1.20;;;1.00;;
7961;SDS011;4026;43.652;24.906;2022-09-03T11:17:57;1.40;;;1.10;;
7961;SDS011;4026;43.652;24.906;2022-09-03T11:20:29;0.83;;;0.73;;
7961;SDS011;4026;43.652;24.906;2022-09-03T11:23:00;1.00;;;0.90;;
7961;SDS011;4026;43.652;24.906;2022-09-03T11:25:30;1.27;;;1.00;;
7961;SDS011;4026;43.652;24.906;2022-09-03T11:28:02;1.63;;;1.07;;
7961;SDS011;4026;43.652;24.906;2022-09-03T11:30:39;2.90;;;1.10;;
7961;SDS011;4026;43.652;24.906;2022-09-03T11:33:19;2.67;;;1.30;;
7961;SDS011;4026;43.652;24.906;2022-09-03T11:35:54;1.07;;;0.93;;
7961;SDS011;4026;43.652;24.906;2022-09-03T11:38:25;2.33;;;1.10;;
7961;SDS011;4026;43.652;24.906;2022-09-03T11:41:03;1.30;;;1.00;;
7961;SDS011;4026;43.652;24.906;2022-09-03T11:43:37;1.23;;;1.00;;
7961;SDS011;4026;43.652;24.906;2022-09-03T11:46:08;1.47;;;1.27;;
7961;SDS011;4026;43.652;24.906;2022-09-03T11:48:38;1.57;;;1.30;;
7961;SDS011;4026;43.652;24.906;2022-09-03T11:51:18;1.40;;;1.23;;
7961;SDS011;4026;43.652;24.906;2022-09-03T11:53:57;1.43;;;1.30;;
7961;SDS011;4026;43.652;24.906;2022-09-03T11:56:26;3.03;;;2.20;;
7961;SDS011;4026;43.652;24.906;2022-09-03T11:59:01;1.40;;;1.30;;
7961;SDS011;4026;43.652;24.906;2022-09-03T12:01:42;1.40;;;1.30;;
7961;SDS011;4026;43.652;24.906;2022-09-03T12:04:17;1.43;;;1.10;;
7961;SDS011;4026;43.652;24.906;2022-09-03T12:06:53;1.43;;;1.23;;
7961;SDS011;4026;43.652;24.906;2022-09-03T12:12:55;0.87;;;0.83;;
7961;SDS011;4026;43.652;24.906;2022-09-03T12:15:37;2.37;;;1.47;;
7961;SDS011;4026;43.652;24.906;2022-09-03T12:18:17;1.13;;;0.97;;
7961;SDS011;4026;43.652;24.906;2022-09-03T12:20:59;1.67;;;0.90;;
7961;SDS011;4026;43.652;24.906;2022-09-03T12:23:28;0.90;;;0.80;;
7961;SDS011;4026;43.652;24.906;2022-09-03T12:25:59;1.47;;;1.37;;
7961;SDS011;4026;43.652;24.906;2022-09-03T12:28:30;1.07;;;0.77;;
7961;SDS011;4026;43.652;24.906;2022-09-03T12:31:05;0.90;;;0.83;;
7961;SDS011;4026;43.652;24.906;2022-09-03T12:33:45;1.10;;;1.00;;
7961;SDS011;4026;43.652;24.906;2022-09-03T12:36:13;2.77;;;1.33;;
7961;SDS011;4026;43.652;24.906;2022-09-03T12:38:40;1.20;;;1.10;;
7961;SDS011;4026;43.652;24.906;2022-09-03T12:41:19;1.13;;;1.00;;
7961;SDS011;4026;43.652;24.906;2022-09-03T12:43:49;1.03;;;1.00;;
7961;SDS011;4026;43.652;24.906;2022-09-03T12:46:18;1.17;;;0.93;;
7961;SDS011;4026;43.652;24.906;2022-09-03T12:48:55;1.40;;;1.10;;
7961;SDS011;4026;43.652;24.906;2022-09-03T12:51:29;1.33;;;0.90;;
7961;SDS011;4026;43.652;24.906;2022-09-03T12:53:58;1.67;;;1.30;;
7961;SDS011;4026;43.652;24.906;2022-09-03T12:56:26;1.53;;;0.80;;
7961;SDS011;4026;43.652;24.906;2022-09-03T12:58:57;2.00;;;1.33;;
7961;SDS011;4026;43.652;24.906;2022-09-03T13:01:28;1.20;;;1.10;;
7961;SDS011;4026;43.652;24.906;2022-09-03T13:04:00;1.20;;;0.80;;
7961;SDS011;4026;43.652;24.906;2022-09-03T13:06:30;0.80;;;0.80;;
7961;SDS011;4026;43.652;24.906;2022-09-03T13:09:02;0.93;;;0.77;;
7961;SDS011;4026;43.652;24.906;2022-09-03T13:11:33;1.10;;;1.00;;
7961;SDS011;4026;43.652;24.906;2022-09-03T13:14:02;0.80;;;0.80;;
7961;SDS011;4026;43.652;24.906;2022-09-03T13:16:38;1.07;;;1.00;;
7961;SDS011;4026;43.652;24.906;2022-09-03T13:19:21;1.10;;;1.00;;
7961;SDS011;4026;43.652;24.906;2022-09-03T13:21:57;1.50;;;1.40;;
7961;SDS011;4026;43.652;24.906;2022-09-03T13:24:42;1.07;;;0.90;;
7961;SDS011;4026;43.652;24.906;2022-09-03T13:27:27;1.50;;;1.10;;
7961;SDS011;4026;43.652;24.906;2022-09-03T13:30:04;2.00;;;1.70;;
7961;SDS011;4026;43.652;24.906;2022-09-03T13:32:36;1.30;;;1.20;;
7961;SDS011;4026;43.652;24.906;2022-09-03T13:35:11;1.10;;;1.00;;
7961;SDS011;4026;43.652;24.906;2022-09-03T13:37:51;3.03;;;1.37;;
7961;SDS011;4026;43.652;24.906;2022-09-03T13:40:24;0.60;;;0.60;;
7961;SDS011;4026;43.652;24.906;2022-09-03T13:43:02;1.80;;;1.20;;
7961;SDS011;4026;43.652;24.906;2022-09-03T13:45:40;2.40;;;1.40;;
7961;SDS011;4026;43.652;24.906;2022-09-03T13:48:12;0.93;;;0.77;;
7961;SDS011;4026;43.652;24.906;2022-09-03T13:51:03;1.63;;;1.00;;
7961;SDS011;4026;43.652;24.906;2022-09-03T13:53:40;1.43;;;1.20;;
7961;SDS011;4026;43.652;24.906;2022-09-03T13:56:22;2.07;;;1.60;;
7961;SDS011;4026;43.652;24.906;2022-09-03T13:59:03;1.13;;;1.00;;
7961;SDS011;4026;43.652;24.906;2022-09-03T14:01:38;1.63;;;1.50;;
7961;SDS011;4026;43.652;24.906;2022-09-03T14:04:20;1.37;;;0.83;;
7961;SDS011;4026;43.652;24.906;2022-09-03T14:06:53;0.90;;;0.80;;
7961;SDS011;4026;43.652;24.906;2022-09-03T14:09:26;1.47;;;1.17;;
7961;SDS011;4026;43.652;24.906;2022-09-03T14:12:04;1.33;;;1.17;;
7961;SDS011;4026;43.652;24.906;2022-09-03T14:14:43;1.10;;;1.00;;
7961;SDS011;4026;43.652;24.906;2022-09-03T14:17:31;1.30;;;1.03;;
7961;SDS011;4026;43.652;24.906;2022-09-03T14:20:07;1.40;;;0.80;;
7961;SDS011;4026;43.652;24.906;2022-09-03T14:22:42;1.13;;;0.87;;
7961;SDS011;4026;43.652;24.906;2022-09-03T14:25:15;1.23;;;1.13;;
7961;SDS011;4026;43.652;24.906;2022-09-03T14:27:43;1.67;;;1.17;;
7961;SDS011;4026;43.652;24.906;2022-09-03T14:30:18;2.30;;;1.00;;
7961;SDS011;4026;43.652;24.906;2022-09-03T14:32:55;1.27;;;1.17;;
7961;SDS011;4026;43.652;24.906;2022-09-03T14:35:32;0.97;;;0.83;;
7961;SDS011;4026;43.652;24.906;2022-09-03T14:41:15;0.90;;;0.77;;
7961;SDS011;4026;43.652;24.906;2022-09-03T14:44:13;1.37;;;1.23;;
7961;SDS011;4026;43.652;24.906;2022-09-03T14:46:59;1.03;;;0.83;;
7961;SDS011;4026;43.652;24.906;2022-09-03T14:49:42;1.13;;;0.90;;
7961;SDS011;4026;43.652;24.906;2022-09-03T14:52:27;1.70;;;1.27;;
7961;SDS011;4026;43.652;24.906;2022-09-03T14:55:14;1.27;;;1.00;;
7961;SDS011;4026;43.652;24.906;2022-09-03T14:57:54;0.53;;;0.53;;
7961;SDS011;4026;43.652;24.906;2022-09-03T15:00:35;1.33;;;1.07;;
7961;SDS011;4026;43.652;24.906;2022-09-03T15:03:28;0.93;;;0.93;;
7961;SDS011;4026;43.652;24.906;2022-09-03T15:06:13;1.00;;;0.87;;
7961;SDS011;4026;43.652;24.906;2022-09-03T15:08:53;1.10;;;0.80;;
7961;SDS011;4026;43.652;24.906;2022-09-03T15:11:31;0.70;;;0.70;;
7961;SDS011;4026;43.652;24.906;2022-09-03T15:14:09;1.27;;;1.00;;
7961;SDS011;4026;43.652;24.906;2022-09-03T15:16:42;0.97;;;0.80;;
7961;SDS011;4026;43.652;24.906;2022-09-03T15:19:28;1.23;;;1.07;;
7961;SDS011;4026;43.652;24.906;2022-09-03T15:22:20;1.07;;;0.97;;
7961;SDS011;4026;43.652;24.906;2022-09-03T15:25:03;0.53;;;0.53;;
7961;SDS011;4026;43.652;24.906;2022-09-03T15:27:47;1.33;;;1.10;;
7961;SDS011;4026;43.652;24.906;2022-09-03T15:30:31;0.97;;;0.90;;
7961;SDS011;4026;43.652;24.906;2022-09-03T15:33:05;1.60;;;1.07;;
7961;SDS011;4026;43.652;24.906;2022-09-03T15:35:48;1.63;;;1.00;;
7961;SDS011;4026;43.652;24.906;2022-09-03T15:38:27;1.13;;;0.70;;
7961;SDS011;4026;43.652;24.906;2022-09-03T15:41:06;0.73;;;0.73;;
7961;SDS011;4026;43.652;24.906;2022-09-03T15:43:39;2.00;;;1.20;;
7961;SDS011;4026;43.652;24.906;2022-09-03T15:46:08;1.17;;;0.90;;
7961;SDS011;4026;43.652;24.906;2022-09-03T15:48:44;0.60;;;0.60;;
7961;SDS011;4026;43.652;24.906;2022-09-03T15:51:19;1.37;;;0.93;;